createdAt,value
2019-05-13T00:02:15.294Z,100863.70
2019-05-13T00:04:44.931Z,100869.16
2019-05-13T00:07:14.799Z,100863.79
2019-05-13T00:09:44.399Z,100864.34
2019-05-13T00:12:13.993Z,100860.20
2019-05-13T00:14:43.655Z,100866.44
2019-05-13T00:17:14.560Z,100865.16
2019-05-13T00:19:44.419Z,100861.95
2019-05-13T00:22:14.223Z,100859.05
2019-05-13T00:24:44.413Z,100863.09
2019-05-13T00:27:14.242Z,100855.26
2019-05-13T00:29:44.472Z,100855.20
2019-05-13T00:32:14.249Z,100860.64
2019-05-13T00:34:44.545Z,100858.05
2019-05-13T00:37:14.792Z,100859.06
2019-05-13T00:39:44.487Z,100856.95
2019-05-13T00:42:14.355Z,100863.06
2019-05-13T00:44:44.477Z,100867.31
2019-05-13T00:47:14.248Z,100864.16
2019-05-13T00:49:43.856Z,100867.13
2019-05-13T00:52:14.329Z,100868.00
2019-05-13T00:54:44.279Z,100872.77
2019-05-13T00:57:13.997Z,100869.11
2019-05-13T00:59:44.295Z,100873.60
2019-05-13T01:02:14.152Z,100862.83
2019-05-13T01:04:44.241Z,100862.13
2019-05-13T01:07:25.280Z,100867.59
2019-05-13T01:09:45.284Z,100860.55
2019-05-13T01:12:15.040Z,100866.20
2019-05-13T01:14:44.682Z,100863.62
2019-05-13T01:17:14.331Z,100869.97
2019-05-13T01:19:44.087Z,100862.58
2019-05-13T01:22:13.810Z,100858.98
2019-05-13T01:24:44.191Z,100870.17
2019-05-13T01:27:14.098Z,100861.34
2019-05-13T01:29:43.785Z,100849.70
2019-05-13T01:32:14.404Z,100855.18
2019-05-13T01:34:44.446Z,100852.64
2019-05-13T01:37:14.209Z,100857.54
2019-05-13T01:39:43.912Z,100856.61
2019-05-13T01:42:13.895Z,100850.80
2019-05-13T01:44:43.893Z,100850.98
2019-05-13T01:47:13.916Z,100858.09
2019-05-13T01:49:44.097Z,100864.70
2019-05-13T01:52:13.829Z,100862.95
2019-05-13T01:54:44.221Z,100861.73
2019-05-13T01:57:14.376Z,100863.83
2019-05-13T01:59:44.028Z,100860.22
2019-05-13T02:02:13.888Z,100856.61
2019-05-13T02:04:43.956Z,100856.42
2019-05-13T02:07:14.446Z,100863.08
2019-05-13T02:09:44.641Z,100860.64
2019-05-13T02:12:14.229Z,100869.95
2019-05-13T02:14:44.448Z,100863.64
2019-05-13T02:17:14.709Z,100861.25
2019-05-13T02:19:44.491Z,100861.11
2019-05-13T02:22:14.699Z,100865.32
2019-05-13T02:24:44.768Z,100862.91
2019-05-13T02:27:14.641Z,100864.25
2019-05-13T02:29:44.230Z,100863.91
2019-05-13T02:32:14.160Z,100865.34
2019-05-13T02:34:44.130Z,100859.48
2019-05-13T02:37:14.503Z,100861.04
2019-05-13T02:39:44.126Z,100864.77
2019-05-13T02:42:13.907Z,100864.93
2019-05-13T02:44:43.879Z,100872.63
2019-05-13T02:47:13.790Z,100878.31
2019-05-13T02:49:43.438Z,100874.59
2019-05-13T02:52:13.498Z,100878.53
2019-05-13T02:54:43.328Z,100882.47
2019-05-13T02:57:13.010Z,100880.41
2019-05-13T02:59:42.867Z,100882.13
2019-05-13T03:02:12.722Z,100879.03
2019-05-13T03:04:43.391Z,100873.34
2019-05-13T03:07:13.418Z,100870.84
2019-05-13T03:09:43.158Z,100867.73
2019-05-13T03:12:13.322Z,100876.19
2019-05-13T03:14:47.912Z,100872.80
2019-05-13T03:17:22.020Z,100882.67
2019-05-13T03:19:53.100Z,100882.93
2019-05-13T03:22:22.590Z,100885.73
2019-05-13T03:24:52.711Z,100879.08
2019-05-13T03:27:25.077Z,100881.54
2019-05-13T03:29:54.057Z,100886.52
2019-05-13T03:32:26.104Z,100885.30
2019-05-13T03:34:56.836Z,100887.05
2019-05-13T03:37:28.019Z,100884.54
2019-05-13T03:40:03.022Z,100888.75
2019-05-13T03:42:33.600Z,100889.25
2019-05-13T03:45:05.806Z,100885.23
2019-05-13T03:47:37.498Z,100877.48
2019-05-13T03:50:08.128Z,100882.88
2019-05-13T03:52:38.564Z,100883.81
2019-05-13T03:55:09.016Z,100893.23
2019-05-13T03:57:42.372Z,100883.56
2019-05-13T04:00:13.154Z,100880.46
2019-05-13T04:02:43.056Z,100884.26
2019-05-13T04:05:13.796Z,100895.84
2019-05-13T04:07:44.036Z,100899.24
2019-05-13T04:10:14.655Z,100898.14
2019-05-13T04:12:45.290Z,100899.44
2019-05-13T04:15:15.715Z,100899.59
2019-05-13T04:17:45.760Z,100898.06
2019-05-13T04:20:16.290Z,100898.98
2019-05-13T04:22:46.892Z,100893.89
2019-05-13T04:25:17.176Z,100895.88
2019-05-13T04:27:47.738Z,100900.44
2019-05-13T04:30:18.091Z,100904.83
2019-05-13T04:32:48.760Z,100914.42
2019-05-13T04:35:19.099Z,100922.07
2019-05-13T04:37:52.648Z,100916.15
2019-05-13T04:40:23.266Z,100910.68
2019-05-13T04:42:54.090Z,100916.03
2019-05-13T04:45:24.448Z,100916.30
2019-05-13T04:47:54.810Z,100906.81
2019-05-13T04:50:25.339Z,100912.44
2019-05-13T04:52:55.665Z,100917.44
2019-05-13T04:55:25.858Z,100919.52
2019-05-13T04:57:56.282Z,100922.41
2019-05-13T05:01:01.995Z,100923.25
2019-05-13T05:03:46.397Z,100920.33
2019-05-13T05:06:45.163Z,100924.52
2019-05-13T05:09:42.908Z,100922.05
2019-05-13T05:12:26.740Z,100925.70
2019-05-13T05:15:25.277Z,100930.53
2019-05-13T05:18:28.386Z,100929.14
2019-05-13T05:21:12.004Z,100929.19
2019-05-13T05:24:18.513Z,100929.52
2019-05-13T05:27:15.647Z,100930.82
2019-05-13T05:30:24.340Z,100929.34
2019-05-13T05:33:42.513Z,100937.03
2019-05-13T05:36:48.700Z,100931.81
2019-05-13T05:39:27.167Z,100938.89
2019-05-13T05:42:02.004Z,100938.89
2019-05-13T05:44:32.844Z,100929.00
2019-05-13T05:47:04.883Z,100935.31
2019-05-13T05:49:35.415Z,100933.92
2019-05-13T05:52:08.934Z,100935.52
2019-05-13T05:54:42.204Z,100940.96
2019-05-13T05:57:12.874Z,100944.05
2019-05-13T05:59:43.270Z,100931.34
2019-05-13T06:02:13.644Z,100932.72
2019-05-13T06:04:45.689Z,100932.41
2019-05-13T06:07:17.127Z,100933.59
2019-05-13T06:09:47.804Z,100932.57
2019-05-13T06:12:18.528Z,100937.13
2019-05-13T06:14:52.232Z,100937.59
2019-05-13T06:17:21.915Z,100936.47
2019-05-13T06:19:52.431Z,100929.13
2019-05-13T06:22:22.760Z,100939.77
2019-05-13T06:24:53.140Z,100934.97
2019-05-13T06:27:24.032Z,100935.84
2019-05-13T06:29:54.447Z,100930.82
2019-05-13T06:32:26.402Z,100932.37
2019-05-13T06:34:57.136Z,100936.27
2019-05-13T06:37:27.167Z,100938.50
2019-05-13T06:39:57.987Z,100936.47
2019-05-13T06:42:28.858Z,100939.44
2019-05-13T06:45:01.730Z,100939.64
2019-05-13T06:47:32.527Z,100944.23
2019-05-13T06:50:03.593Z,100943.59
2019-05-13T06:52:34.436Z,100932.44
2019-05-13T06:55:06.284Z,100934.91
2019-05-13T06:57:36.596Z,100943.38
2019-05-13T07:00:08.874Z,100952.13
2019-05-13T07:02:42.541Z,100937.77
2019-05-13T07:05:12.180Z,100943.61
2019-05-13T07:07:42.948Z,100937.84
2019-05-13T07:10:13.701Z,100942.23
2019-05-13T07:12:47.016Z,100931.81
2019-05-13T07:15:17.873Z,100937.09
2019-05-13T07:17:48.689Z,100935.59
2019-05-13T07:20:22.677Z,100932.43
2019-05-13T07:22:53.299Z,100932.80
2019-05-13T07:25:24.448Z,100934.25
2019-05-13T07:27:55.243Z,100937.02
2019-05-13T07:30:45.455Z,100945.30
2019-05-13T07:33:16.170Z,100939.28
2019-05-13T07:35:46.999Z,100944.98
2019-05-13T07:38:18.641Z,100939.09
2019-05-13T07:40:52.264Z,100939.46
2019-05-13T07:43:24.397Z,100938.92
2019-05-13T07:45:53.791Z,100932.64
2019-05-13T07:48:27.902Z,100945.67
2019-05-13T07:51:00.728Z,100940.27
2019-05-13T07:53:29.175Z,100928.61
2019-05-13T07:56:01.988Z,100930.56
2019-05-13T07:58:36.506Z,100931.39
2019-05-13T08:01:03.520Z,100932.66
2019-05-13T08:03:35.188Z,100931.32
2019-05-13T08:06:05.281Z,100921.30
2019-05-13T08:08:36.147Z,100932.31
2019-05-13T08:11:07.044Z,100924.35
2019-05-13T08:13:37.562Z,100936.99
2019-05-13T08:16:07.752Z,100922.87
2019-05-13T08:18:38.127Z,100926.37
2019-05-13T08:21:08.959Z,100933.52
2019-05-13T08:23:41.647Z,100925.15
2019-05-13T08:26:12.437Z,100932.72
2019-05-13T08:28:57.025Z,100933.23
2019-05-13T08:31:14.607Z,100928.95
2019-05-13T08:33:44.927Z,100936.58
2019-05-13T08:36:15.201Z,100942.16
2019-05-13T08:38:45.407Z,100940.00
2019-05-13T08:41:19.441Z,100934.31
2019-05-13T08:43:49.055Z,100942.31
2019-05-13T08:46:21.876Z,100943.66
2019-05-13T08:48:52.002Z,100942.83
2019-05-13T08:51:22.651Z,100935.94
2019-05-13T08:53:53.231Z,100938.87
2019-05-13T08:56:23.687Z,100934.20
2019-05-13T08:58:54.325Z,100926.84
2019-05-13T09:01:25.138Z,100931.11
2019-05-13T09:03:55.656Z,100924.35
2019-05-13T09:06:26.471Z,100920.69
2019-05-13T09:08:57.081Z,100928.05
2019-05-13T09:11:27.422Z,100927.45
2019-05-13T09:13:58.071Z,100917.81
2019-05-13T09:16:31.822Z,100922.19
2019-05-13T09:19:03.729Z,100922.77
2019-05-13T09:21:32.552Z,100909.30
2019-05-13T09:24:03.320Z,100918.02
2019-05-13T09:26:33.922Z,100911.13
2019-05-13T09:29:04.216Z,100910.39
2019-05-13T09:31:34.691Z,100907.78
2019-05-13T09:34:04.944Z,100908.75
2019-05-13T09:36:35.160Z,100912.60
2019-05-13T09:39:07.850Z,100910.86
2019-05-13T09:41:41.114Z,100911.37
2019-05-13T09:44:12.121Z,100913.84
2019-05-13T09:46:42.495Z,100901.44
2019-05-13T09:49:19.639Z,100898.73
2019-05-13T09:51:45.012Z,100899.12
2019-05-13T09:54:15.208Z,100899.02
2019-05-13T09:56:45.527Z,100903.27
2019-05-13T09:59:15.699Z,100898.84
2019-05-13T10:01:45.794Z,100910.31
2019-05-13T10:04:16.270Z,100905.63
2019-05-13T10:06:47.009Z,100899.75
2019-05-13T10:09:17.585Z,100899.62
2019-05-13T10:11:47.746Z,100895.96
2019-05-13T10:14:18.009Z,100904.78
2019-05-13T10:16:48.406Z,100897.97
2019-05-13T10:19:21.259Z,100896.45
2019-05-13T10:21:52.457Z,100882.36
2019-05-13T10:24:23.017Z,100896.70
2019-05-13T10:26:54.422Z,100892.34
2019-05-13T10:29:25.148Z,100890.81
2019-05-13T10:31:55.350Z,100885.05
2019-05-13T10:34:25.869Z,100884.13
2019-05-13T10:36:56.816Z,100891.75
2019-05-13T10:39:27.172Z,100888.44
2019-05-13T10:41:57.515Z,100880.92
2019-05-13T10:44:28.010Z,100874.27
2019-05-13T10:46:58.305Z,100874.77
2019-05-13T10:49:28.789Z,100877.53
2019-05-13T10:51:58.976Z,100867.11
2019-05-13T10:54:29.334Z,100872.12
2019-05-13T10:57:00.769Z,100858.99
2019-05-13T10:59:31.914Z,100874.34
2019-05-13T11:02:02.388Z,100863.94
2019-05-13T11:04:33.000Z,100862.61
2019-05-13T11:07:03.476Z,100859.86
2019-05-13T11:09:33.768Z,100862.55
2019-05-13T11:12:04.265Z,100860.51
2019-05-13T11:14:34.510Z,100863.13
2019-05-13T11:17:04.854Z,100856.52
2019-05-13T11:19:37.129Z,100859.67
2019-05-13T11:22:07.345Z,100857.31
2019-05-13T11:24:37.849Z,100852.20
2019-05-13T11:27:08.173Z,100840.67
2019-05-13T11:29:38.480Z,100854.42
2019-05-13T11:32:08.879Z,100859.52
2019-05-13T11:34:41.447Z,100840.86
2019-05-13T11:37:12.343Z,100841.23
2019-05-13T11:39:42.802Z,100840.16
2019-05-13T11:42:13.801Z,100830.38
2019-05-13T11:44:44.285Z,100829.00
2019-05-13T11:47:14.568Z,100829.41
2019-05-13T11:49:45.019Z,100828.92
2019-05-13T11:52:15.749Z,100830.29
2019-05-13T11:54:46.101Z,100834.00
2019-05-13T11:57:16.579Z,100826.09
2019-05-13T11:59:47.103Z,100827.71
2019-05-13T12:02:18.058Z,100818.29
2019-05-13T12:04:48.191Z,100825.81
2019-05-13T12:07:18.563Z,100824.34
2019-05-13T12:09:49.036Z,100820.41
2019-05-13T12:12:19.190Z,100818.65
2019-05-13T12:15:20.982Z,100816.58
2019-05-13T12:17:22.499Z,100805.16
2019-05-13T12:19:54.222Z,100806.02
2019-05-13T12:22:25.258Z,100796.37
2019-05-13T12:24:55.553Z,100797.22
2019-05-13T12:27:26.111Z,100803.41
2019-05-13T12:29:56.496Z,100802.92
2019-05-13T12:32:28.125Z,100793.05
2019-05-13T12:34:58.516Z,100804.05
2019-05-13T12:37:28.782Z,100804.14
2019-05-13T12:39:59.199Z,100789.48
2019-05-13T12:42:29.380Z,100787.91
2019-05-13T12:45:08.125Z,100794.70
2019-05-13T12:47:31.649Z,100794.94
2019-05-13T12:50:03.246Z,100787.30
2019-05-13T12:52:34.611Z,100785.95
2019-05-13T12:55:05.645Z,100784.42
2019-05-13T12:57:36.030Z,100782.63
2019-05-13T13:00:08.451Z,100789.34
2019-05-13T13:02:38.715Z,100786.19
2019-05-13T13:05:14.149Z,100777.83
2019-05-13T13:07:42.273Z,100789.25
2019-05-13T13:10:15.495Z,100784.32
2019-05-13T13:12:45.703Z,100767.19
2019-05-13T13:17:49.089Z,100779.13
2019-05-13T13:20:23.973Z,100768.03
2019-05-13T13:22:50.896Z,100747.42
2019-05-13T13:25:23.845Z,100762.85
2019-05-13T13:30:25.179Z,100767.92
2019-05-13T13:32:55.346Z,100765.06
2019-05-13T13:35:25.303Z,100758.97
2019-05-13T13:37:55.623Z,100756.20
2019-05-13T13:40:29.649Z,100761.84
2019-05-13T13:42:57.813Z,100759.43
2019-05-13T13:45:28.547Z,100755.38
2019-05-13T13:48:03.681Z,100757.38
2019-05-13T13:50:33.559Z,100737.24
2019-05-13T13:53:03.918Z,100749.60
2019-05-13T13:55:34.214Z,100748.03
2019-05-13T13:58:04.947Z,100752.70
2019-05-13T14:00:47.440Z,100752.98
2019-05-13T14:03:07.731Z,100744.94
2019-05-13T14:05:38.076Z,100743.27
2019-05-13T14:07:08.010Z,100757.53
2019-05-13T14:07:09.285Z,100760.89
2019-05-13T14:08:08.075Z,100741.36
2019-05-13T14:10:38.383Z,100739.77
2019-05-13T14:13:08.909Z,100730.64
2019-05-13T14:15:41.547Z,100719.23
2019-05-13T14:18:11.421Z,100717.27
2019-05-13T14:20:42.795Z,100724.38
2019-05-13T14:23:13.526Z,100719.31
2019-05-13T14:25:43.685Z,100718.58
2019-05-13T14:28:17.481Z,100710.53
2019-05-13T14:30:46.319Z,100716.77
2019-05-13T14:33:17.866Z,100732.48
2019-05-13T14:35:48.103Z,100712.45
2019-05-13T14:38:18.753Z,100723.95
2019-05-13T14:40:51.695Z,100744.05
2019-05-13T14:43:22.920Z,100730.08
2019-05-13T14:45:52.316Z,100713.77
2019-05-13T14:48:22.754Z,100712.27
2019-05-13T14:50:53.013Z,100723.70
2019-05-13T14:53:23.338Z,100711.80
2019-05-13T14:55:53.873Z,100718.20
2019-05-13T14:58:25.073Z,100714.63
2019-05-13T15:01:11.157Z,100711.69
2019-05-13T15:03:27.096Z,100714.73
2019-05-13T15:05:57.189Z,100706.01
2019-05-13T15:08:27.321Z,100697.48
2019-05-13T15:10:57.533Z,100701.73
2019-05-13T15:13:27.764Z,100700.07
2019-05-13T15:15:58.032Z,100707.55
2019-05-13T15:18:32.237Z,100700.00
2019-05-13T15:21:02.016Z,100698.13
2019-05-13T15:23:32.261Z,100705.44
2019-05-13T15:26:02.600Z,100707.69
2019-05-13T15:28:32.767Z,100703.00
2019-05-13T15:31:03.097Z,100700.77
2019-05-13T15:33:34.855Z,100701.06
2019-05-13T15:36:05.102Z,100700.81
2019-05-13T15:38:35.447Z,100695.70
2019-05-13T15:41:05.589Z,100689.95
2019-05-13T15:43:35.950Z,100690.72
2019-05-13T15:46:08.372Z,100685.70
2019-05-13T15:48:42.040Z,100696.07
2019-05-13T15:51:11.527Z,100691.41
2019-05-13T15:53:43.718Z,100676.17
2019-05-13T15:56:12.815Z,100677.56
2019-05-13T15:58:44.518Z,100680.28
2019-05-13T16:01:14.108Z,100675.84
2019-05-13T16:03:44.263Z,100668.25
2019-05-13T16:06:14.413Z,100672.86
2019-05-13T16:08:44.363Z,100675.31
2019-05-13T16:11:14.542Z,100665.31
2019-05-13T16:13:45.153Z,100666.37
2019-05-13T16:16:15.449Z,100661.71
2019-05-13T16:18:45.668Z,100663.97
2019-05-13T16:21:15.956Z,100657.41
2019-05-13T16:23:46.092Z,100653.28
2019-05-13T16:26:16.273Z,100652.87
2019-05-13T16:28:46.484Z,100651.50
2019-05-13T16:31:16.571Z,100654.85
2019-05-13T16:33:46.926Z,100641.25
2019-05-13T16:36:17.100Z,100639.28
2019-05-13T16:38:47.418Z,100639.70
2019-05-13T16:41:17.895Z,100642.53
2019-05-13T16:43:49.670Z,100643.64
2019-05-13T16:46:21.442Z,100651.16
2019-05-13T16:48:50.860Z,100645.88
2019-05-13T16:51:21.620Z,100644.98
2019-05-13T16:53:52.443Z,100645.98
2019-05-13T16:56:27.738Z,100646.87
2019-05-13T16:58:54.637Z,100648.44
2019-05-13T17:01:24.886Z,100641.29
2019-05-13T17:03:55.182Z,100645.84
2019-05-13T17:06:25.397Z,100649.28
2019-05-13T17:08:55.552Z,100644.53
2019-05-13T17:11:25.901Z,100652.77
2019-05-13T17:13:56.134Z,100648.13
2019-05-13T17:16:26.318Z,100644.03
2019-05-13T17:18:56.622Z,100634.44
2019-05-13T17:21:28.646Z,100635.98
2019-05-13T17:23:58.628Z,100641.23
2019-05-13T17:26:29.073Z,100642.22
2019-05-13T17:29:01.428Z,100637.41
2019-05-13T17:31:32.553Z,100637.34
2019-05-13T17:34:02.770Z,100631.95
2019-05-13T17:36:33.305Z,100631.56
2019-05-13T17:39:05.141Z,100635.38
2019-05-13T17:41:35.376Z,100640.48
2019-05-13T17:44:06.187Z,100636.63
2019-05-13T17:46:36.461Z,100634.70
2019-05-13T17:49:06.751Z,100637.59
2019-05-13T17:51:37.246Z,100634.77
2019-05-13T17:54:07.378Z,100632.57
2019-05-13T17:56:37.857Z,100635.05
2019-05-13T17:59:08.114Z,100636.41
2019-05-13T18:01:38.309Z,100635.25
2019-05-13T18:04:08.502Z,100643.28
2019-05-13T18:06:38.904Z,100635.02
2019-05-13T18:09:11.956Z,100634.56
2019-05-13T18:11:42.025Z,100633.70
2019-05-13T18:14:12.079Z,100630.14
2019-05-13T18:16:42.280Z,100628.94
2019-05-13T18:19:12.554Z,100620.25
2019-05-13T18:21:43.009Z,100622.27
2019-05-13T18:24:13.399Z,100618.30
2019-05-13T18:26:43.588Z,100616.83
2019-05-13T18:29:14.189Z,100610.46
2019-05-13T18:31:44.584Z,100609.86
2019-05-13T18:34:15.035Z,100620.74
2019-05-13T18:36:45.646Z,100617.52
2019-05-13T18:39:15.916Z,100626.99
2019-05-13T18:41:46.279Z,100621.05
2019-05-13T18:44:16.721Z,100619.83
2019-05-13T18:46:47.051Z,100616.83
2019-05-13T18:49:17.392Z,100624.59
2019-05-13T18:51:47.497Z,100623.42
2019-05-13T18:54:17.656Z,100626.84
2019-05-13T18:56:48.028Z,100624.30
2019-05-13T18:59:18.622Z,100630.45
2019-05-13T19:01:52.679Z,100635.94
2019-05-13T19:04:21.844Z,100635.61
2019-05-13T19:06:52.349Z,100636.45
2019-05-13T19:09:22.858Z,100637.25
2019-05-13T19:11:53.097Z,100636.80
2019-05-13T19:14:23.645Z,100633.09
2019-05-13T19:16:53.999Z,100632.87
2019-05-13T19:19:24.150Z,100633.02
2019-05-13T19:21:54.308Z,100630.47
2019-05-13T19:24:24.920Z,100633.69
2019-05-13T19:26:55.075Z,100632.48
2019-05-13T19:29:26.209Z,100635.81
2019-05-13T19:31:56.108Z,100636.36
2019-05-13T19:34:26.066Z,100642.28
2019-05-13T19:36:56.482Z,100646.57
2019-05-13T19:39:26.961Z,100647.37
2019-05-13T19:41:57.116Z,100649.23
2019-05-13T19:44:27.244Z,100647.30
2019-05-13T19:46:57.091Z,100644.00
2019-05-13T19:49:32.145Z,100646.14
2019-05-13T19:51:58.433Z,100654.00
2019-05-13T19:54:28.254Z,100649.38
2019-05-13T19:56:58.328Z,100650.64
2019-05-13T19:59:28.351Z,100644.09
2019-05-13T20:01:58.001Z,100646.13
2019-05-13T20:04:27.734Z,100651.48
2019-05-13T20:06:57.506Z,100647.48
2019-05-13T20:09:27.168Z,100652.59
2019-05-13T20:11:57.166Z,100657.27
2019-05-13T20:14:27.063Z,100653.42
2019-05-13T20:16:56.812Z,100652.70
2019-05-13T20:19:26.483Z,100655.13
2019-05-13T20:21:56.435Z,100662.56
2019-05-13T20:24:26.114Z,100659.86
2019-05-13T20:26:55.800Z,100665.23
2019-05-13T20:29:25.648Z,100658.73
2019-05-13T20:31:55.577Z,100656.98
2019-05-13T20:34:25.539Z,100655.59
2019-05-13T20:36:55.185Z,100658.73
2019-05-13T20:39:25.505Z,100662.14
2019-05-13T20:41:55.821Z,100669.47
2019-05-13T20:44:25.800Z,100672.91
2019-05-13T20:46:55.718Z,100669.02
2019-05-13T20:49:25.724Z,100663.41
2019-05-13T20:51:55.533Z,100666.50
2019-05-13T20:54:25.309Z,100664.88
2019-05-13T20:56:54.927Z,100669.12
2019-05-13T20:59:24.636Z,100667.94
2019-05-13T21:01:54.378Z,100661.73
2019-05-13T21:04:24.093Z,100668.36
2019-05-13T21:06:54.088Z,100675.30
2019-05-13T21:09:23.724Z,100675.20
2019-05-13T21:11:53.529Z,100667.16
2019-05-13T21:14:23.404Z,100674.06
2019-05-13T21:16:53.775Z,100672.03
2019-05-13T21:19:24.015Z,100671.23
2019-05-13T21:21:53.714Z,100668.45
2019-05-13T21:24:23.346Z,100666.92
2019-05-13T21:26:53.274Z,100667.43
2019-05-13T21:29:23.415Z,100664.81
2019-05-13T21:31:53.835Z,100660.36
2019-05-13T21:34:23.555Z,100661.73
2019-05-13T21:36:54.955Z,100655.70
2019-05-13T21:39:24.962Z,100659.52
2019-05-13T21:41:54.786Z,100656.36
2019-05-13T21:44:24.543Z,100663.50
2019-05-13T21:46:54.408Z,100658.66
2019-05-13T21:49:24.191Z,100656.84
2019-05-13T21:51:53.991Z,100661.70
2019-05-13T21:54:23.857Z,100658.50
2019-05-13T21:56:53.738Z,100659.70
2019-05-13T21:59:23.412Z,100670.31
2019-05-13T22:01:53.833Z,100668.41
2019-05-13T22:04:23.700Z,100662.66
2019-05-13T22:06:53.447Z,100665.35
2019-05-13T22:09:23.356Z,100661.95
2019-05-13T22:11:53.735Z,100657.52
2019-05-13T22:14:23.554Z,100659.52
2019-05-13T22:16:56.478Z,100658.95
2019-05-13T22:19:25.123Z,100652.41
2019-05-13T22:21:54.924Z,100662.77
2019-05-13T22:24:25.181Z,100658.18
2019-05-13T22:26:54.942Z,100658.88
2019-05-13T22:29:24.503Z,100652.45
2019-05-13T22:31:54.293Z,100649.88
2019-05-13T22:34:23.989Z,100653.52
2019-05-13T22:36:53.723Z,100644.54
2019-05-13T22:39:23.386Z,100651.52
2019-05-13T22:41:53.322Z,100644.55
2019-05-13T22:44:23.159Z,100650.39
2019-05-13T22:46:53.194Z,100644.37
2019-05-13T22:49:23.065Z,100649.26
2019-05-13T22:51:53.101Z,100647.17
2019-05-13T22:54:23.036Z,100644.82
2019-05-13T22:56:52.829Z,100646.54
2019-05-13T22:59:22.762Z,100649.56
2019-05-13T23:01:52.552Z,100651.45
2019-05-13T23:04:22.718Z,100648.05
2019-05-13T23:06:52.620Z,100638.67
2019-05-13T23:09:22.764Z,100649.27
2019-05-13T23:11:52.519Z,100642.77
2019-05-13T23:14:22.390Z,100642.37
2019-05-13T23:16:51.971Z,100641.36
2019-05-13T23:19:21.861Z,100636.64
2019-05-13T23:21:51.751Z,100641.48
2019-05-13T23:24:22.916Z,100635.41
2019-05-13T23:26:52.562Z,100638.56
2019-05-13T23:29:22.266Z,100634.93
2019-05-13T23:31:52.140Z,100631.30
2019-05-13T23:34:22.409Z,100628.58
2019-05-13T23:36:52.319Z,100624.34
2019-05-13T23:39:22.113Z,100626.16
2019-05-13T23:41:52.274Z,100623.60
2019-05-13T23:44:27.808Z,100615.23
2019-05-13T23:46:53.514Z,100612.13
2019-05-13T23:49:23.250Z,100616.23
2019-05-13T23:51:52.826Z,100604.67
2019-05-13T23:54:22.534Z,100607.83
2019-05-13T23:56:52.281Z,100609.27
2019-05-13T23:59:22.009Z,100604.00
